Dades meteomassalio
Diari Summary for Octubre 10, 2017 Units:  Metric    English   Both
« Previous Day
Next Day »
Diari Semanal Mensual Anual Personalitzat
  Maxima: Minima: Mijana:
Temperatura: 25.6 °C 3.9 °C 13.5 °C
Rosada: 7.5 °C -2.9 °C 2.2 °C
Humitat: 78 % 24 % 50 %
Velocitat del vent: 14.8 km/h 0.0 km/h 1.6 km/h
Racha vent: 14.8 km/h - -
Vent:- - West
Pressio: 1024.3 hPa 1021.2 hPa -
Pluja: 0.0 mm    
Historical Graphs
 
 
Tabular Data for Octubre 10, 2017
Time Temperature Dew Point Pressure Wind Wind Speed Wind Gust Humidity Rainfall Rate (Hourly) solar Conditions
00:03 8.3 °C 0.8 °C 1022.6 hPa Calm     59 % 0.0 mm 0.0 W/m2 CLR
00:09 8.3 °C 1.0 °C 1022.9 hPa Calm     60 % 0.0 mm 0.0 W/m2 CLR
00:14 8.9 °C 1.8 °C 1022.6 hPa Calm     61 % 0.0 mm 0.0 W/m2 CLR
00:19 8.9 °C 1.8 °C 1022.9 hPa Calm     61 % 0.0 mm 0.0 W/m2 CLR
00:24 8.9 °C 1.8 °C 1022.6 hPa Calm     61 % 0.0 mm 0.0 W/m2 CLR
00:29 8.9 °C 1.8 °C 1022.9 hPa Calm     61 % 0.0 mm 0.0 W/m2 CLR
00:39 8.9 °C 1.8 °C 1022.6 hPa Calm     61 % 0.0 mm 0.0 W/m2 CLR
00:44 8.3 °C 1.4 °C 1022.6 hPa Calm     62 % 0.0 mm 0.0 W/m2 CLR
00:49 8.9 °C 2.0 °C 1022.9 hPa Calm     62 % 0.0 mm 0.0 W/m2 CLR
00:54 8.9 °C 2.0 °C 1022.9 hPa Calm     62 % 0.0 mm 0.0 W/m2 CLR
00:59 8.9 °C 2.2 °C 1022.9 hPa Calm     63 % 0.0 mm 0.0 W/m2 CLR
01:04 8.9 °C 2.2 °C 1022.6 hPa Calm     63 % 0.0 mm 0.0 W/m2 CLR
01:09 8.9 °C 2.2 °C 1022.6 hPa Calm     63 % 0.0 mm 0.0 W/m2 CLR
01:10 8.3 °C 1.7 °C 1022.9 hPa Calm     63 % 0.0 mm 0.0 W/m2 CLR
01:16 8.3 °C 1.7 °C 1022.6 hPa Calm     63 % 0.0 mm 0.0 W/m2 CLR
01:26 7.8 °C 1.4 °C 1022.6 hPa Calm     64 % 0.0 mm 0.0 W/m2 CLR
01:31 7.8 °C 1.4 °C 1022.6 hPa Calm     64 % 0.0 mm 0.0 W/m2 CLR
01:36 7.8 °C 1.4 °C 1022.6 hPa Calm     64 % 0.0 mm 0.0 W/m2 CLR
01:41 7.8 °C 1.6 °C 1022.6 hPa Calm     65 % 0.0 mm 0.0 W/m2 CLR
01:46 7.8 °C 1.6 °C 1022.6 hPa Calm     65 % 0.0 mm 0.0 W/m2 CLR
01:51 7.8 °C 1.6 °C 1022.6 hPa Calm     65 % 0.0 mm 0.0 W/m2 CLR
01:56 7.8 °C 1.6 °C 1022.6 hPa Calm     65 % 0.0 mm 0.0 W/m2 CLR
02:01 7.2 °C 1.1 °C 1022.6 hPa Calm     65 % 0.0 mm 0.0 W/m2 CLR
02:06 7.8 °C 1.8 °C 1022.6 hPa Calm     66 % 0.0 mm 0.0 W/m2 CLR
02:11 7.8 °C 1.8 °C 1022.6 hPa Calm     66 % 0.0 mm 0.0 W/m2 CLR
02:16 8.3 °C 2.3 °C 1022.6 hPa Calm     66 % 0.0 mm 0.0 W/m2 CLR
02:21 7.8 °C 2.1 °C 1022.6 hPa Calm     67 % 0.0 mm 0.0 W/m2 CLR
02:26 7.8 °C 2.1 °C 1022.6 hPa Calm     67 % 0.0 mm 0.0 W/m2 CLR
02:31 7.8 °C 2.1 °C 1022.6 hPa Calm     67 % 0.0 mm 0.0 W/m2 CLR
02:36 7.8 °C 2.1 °C 1022.6 hPa Calm     67 % 0.0 mm 0.0 W/m2 CLR
02:41 7.8 °C 2.2 °C 1022.6 hPa Calm     68 % 0.0 mm 0.0 W/m2 CLR
02:46 7.8 °C 2.2 °C 1022.6 hPa Calm     68 % 0.0 mm 0.0 W/m2 CLR
02:51 7.8 °C 2.2 °C 1022.6 hPa Calm     68 % 0.0 mm 0.0 W/m2 CLR
02:56 7.8 °C 2.2 °C 1022.6 hPa Calm     68 % 0.0 mm 0.0 W/m2 CLR
03:01 7.8 °C 2.4 °C 1022.6 hPa Calm     69 % 0.0 mm 0.0 W/m2 CLR
03:06 7.8 °C 2.2 °C 1022.6 hPa Calm     68 % 0.0 mm 0.0 W/m2 CLR
03:11 7.8 °C 2.2 °C 1022.6 hPa Calm     68 % 0.0 mm 0.0 W/m2 CLR
03:16 7.8 °C 2.2 °C 1022.6 hPa Calm     68 % 0.0 mm 0.0 W/m2 CLR
03:21 7.2 °C 1.7 °C 1022.6 hPa Calm     68 % 0.0 mm 0.0 W/m2 CLR
03:26 7.2 °C 1.9 °C 1022.6 hPa Calm     69 % 0.0 mm 0.0 W/m2 CLR
03:31 7.2 °C 1.9 °C 1022.6 hPa Calm     69 % 0.0 mm 0.0 W/m2 CLR
03:36 7.2 °C 2.1 °C 1022.6 hPa Calm     70 % 0.0 mm 0.0 W/m2 CLR
03:41 7.2 °C 2.1 °C 1022.6 hPa Calm     70 % 0.0 mm 0.0 W/m2 CLR
03:46 7.2 °C 2.1 °C 1022.6 hPa Calm     70 % 0.0 mm 0.0 W/m2 CLR
03:51 6.7 °C 1.6 °C 1022.6 hPa Calm     70 % 0.0 mm 0.0 W/m2 CLR
03:56 6.7 °C 1.6 °C 1022.6 hPa Calm     70 % 0.0 mm 0.0 W/m2 CLR
04:01 6.1 °C 1.1 °C 1022.6 hPa Calm     70 % 0.0 mm 0.0 W/m2 CLR
04:06 6.7 °C 1.6 °C 1022.6 hPa Calm     70 % 0.0 mm 0.0 W/m2 CLR
04:11 7.2 °C 2.3 °C 1022.6 hPa Calm     71 % 0.0 mm 0.0 W/m2 CLR
04:16 7.2 °C 2.3 °C 1022.6 hPa Calm     71 % 0.0 mm 0.0 W/m2 CLR
04:21 6.7 °C 1.8 °C 1022.6 hPa Calm     71 % 0.0 mm 0.0 W/m2 CLR
04:26 6.7 °C 2.0 °C 1022.6 hPa Calm     72 % 0.0 mm 0.0 W/m2 CLR
04:31 6.7 °C 1.8 °C 1022.6 hPa Calm     71 % 0.0 mm 0.0 W/m2 CLR
04:41 6.7 °C 1.8 °C 1022.6 hPa Calm     71 % 0.0 mm 0.0 W/m2 CLR
04:46 6.7 °C 1.8 °C 1022.6 hPa Calm     71 % 0.0 mm 0.0 W/m2 CLR
04:51 6.7 °C 2.0 °C 1022.6 hPa Calm     72 % 0.0 mm 0.0 W/m2 CLR
04:56 6.7 °C 2.0 °C 1022.6 hPa Calm     72 % 0.0 mm 0.0 W/m2 CLR
05:01 6.1 °C 1.1 °C 1022.6 hPa Calm     70 % 0.0 mm 0.0 W/m2 CLR
05:06 6.1 °C 1.1 °C 1022.6 hPa Calm     70 % 0.0 mm 0.0 W/m2 CLR
05:11 6.1 °C 1.2 °C 1022.6 hPa Calm     71 % 0.0 mm 0.0 W/m2 CLR
05:16 6.1 °C 1.4 °C 1022.6 hPa Calm     72 % 0.0 mm 0.0 W/m2 CLR
05:20 5.6 °C 0.9 °C 1022.6 hPa Calm     72 % 0.0 mm 0.0 W/m2 CLR
05:21 5.6 °C 0.9 °C 1022.6 hPa Calm     72 % 0.0 mm 0.0 W/m2 CLR
05:26 5.6 °C 0.9 °C 1022.2 hPa Calm     72 % 0.0 mm 0.0 W/m2 CLR
05:31 5.6 °C 0.9 °C 1022.6 hPa Calm     72 % 0.0 mm 0.0 W/m2 CLR
05:36 6.1 °C 1.4 °C 1022.6 hPa Calm     72 % 0.0 mm 0.0 W/m2 CLR
05:41 6.1 °C 1.4 °C 1022.6 hPa Calm     72 % 0.0 mm 0.0 W/m2 CLR
05:46 6.1 °C 1.4 °C 1022.6 hPa Calm     72 % 0.0 mm 0.0 W/m2 CLR
05:51 5.6 °C 0.9 °C 1022.6 hPa Calm     72 % 0.0 mm 0.0 W/m2 CLR
05:56 5.6 °C 1.1 °C 1022.6 hPa Calm     73 % 0.0 mm 0.0 W/m2 CLR
06:01 5.6 °C 1.1 °C 1022.6 hPa Calm     73 % 0.0 mm 0.0 W/m2 CLR
06:06 5.6 °C 0.7 °C 1022.6 hPa Calm     71 % 0.0 mm 0.0 W/m2 CLR
06:11 5.6 °C 0.9 °C 1022.6 hPa Calm     72 % 0.0 mm 0.0 W/m2 CLR
06:16 5.0 °C 0.6 °C 1022.6 hPa Calm     73 % 0.0 mm 0.0 W/m2 CLR
06:21 5.0 °C 0.7 °C 1022.6 hPa Calm     74 % 0.0 mm 0.0 W/m2 CLR
06:26 4.4 °C 0.2 °C 1022.6 hPa Calm     74 % 0.0 mm 0.0 W/m2 CLR
06:36 5.0 °C 0.9 °C 1022.6 hPa Calm     75 % 0.0 mm 0.0 W/m2 CLR
06:41 5.0 °C 0.7 °C 1022.6 hPa Calm     74 % 0.0 mm 0.0 W/m2 CLR
06:46 4.4 °C 0.4 °C 1022.6 hPa Calm     75 % 0.0 mm 0.0 W/m2 CLR
06:51 4.4 °C 0.6 °C 1022.6 hPa Calm     76 % 0.0 mm 0.0 W/m2 CLR
06:56 4.4 °C 0.6 °C 1022.6 hPa Calm     76 % 0.0 mm 0.0 W/m2 CLR
07:01 5.0 °C 1.1 °C 1022.6 hPa Calm     76 % 0.0 mm 0.0 W/m2 CLR
07:06 5.0 °C 1.1 °C 1022.6 hPa Calm     76 % 0.0 mm 0.0 W/m2 CLR
07:11 4.4 °C 0.4 °C 1022.6 hPa Calm     75 % 0.0 mm 0.0 W/m2 CLR
07:16 4.4 °C 0.4 °C 1022.9 hPa Calm     75 % 0.0 mm 0.0 W/m2 CLR
07:21 3.9 °C -0.2 °C 1022.9 hPa Calm     75 % 0.0 mm 0.0 W/m2 CLR
07:26 3.9 °C 0.1 °C 1022.9 hPa Calm     76 % 0.0 mm 0.0 W/m2 CLR
07:31 3.9 °C 0.1 °C 1022.9 hPa Calm     76 % 0.0 mm 0.0 W/m2 CLR
07:36 3.9 °C -0.2 °C 1022.9 hPa Calm     75 % 0.0 mm 0.0 W/m2 CLR
07:41 3.9 °C 0.1 °C 1022.9 hPa Calm     76 % 0.0 mm 0.0 W/m2 CLR
07:46 4.4 °C 0.6 °C 1022.9 hPa Calm     76 % 0.0 mm 0.0 W/m2 CLR
07:51 4.4 °C 0.6 °C 1022.9 hPa Calm     76 % 0.0 mm 0.0 W/m2 CLR
07:56 4.4 °C 0.6 °C 1022.9 hPa Calm     76 % 0.0 mm 0.0 W/m2 CLR
08:01 3.9 °C 0.1 °C 1023.2 hPa Calm     76 % 0.0 mm 0.0 W/m2 OVC
08:06 3.9 °C 0.1 °C 1023.2 hPa Calm     76 % 0.0 mm 5.0 W/m2 OVC
08:11 3.9 °C 0.2 °C 1023.2 hPa Calm     77 % 0.0 mm 7.0 W/m2 BKN
08:21 4.4 °C 0.8 °C 1023.2 hPa Calm     77 % 0.0 mm 12.0 W/m2 BKN
08:26 5.0 °C 1.5 °C 1023.6 hPa Calm     78 % 0.0 mm 14.0 W/m2 BKN
08:31 5.6 °C 1.8 °C 1023.6 hPa Calm     77 % 0.0 mm 16.0 W/m2 BKN
08:36 5.6 °C 1.7 °C 1023.6 hPa Calm     76 % 0.0 mm 23.0 W/m2 BKN
08:41 5.6 °C 1.8 °C 1023.6 hPa Calm     77 % 0.0 mm 32.0 W/m2 BKN
08:46 5.0 °C 0.9 °C 1023.6 hPa Calm     75 % 0.0 mm 46.0 W/m2 BKN
08:51 5.0 °C 0.7 °C 1023.6 hPa Calm     74 % 0.0 mm 42.0 W/m2 BKN
08:56 5.0 °C 0.6 °C 1023.6 hPa Calm     73 % 0.0 mm 62.0 W/m2 SCT
09:01 5.0 °C 0.4 °C 1023.6 hPa Calm     72 % 0.0 mm 60.0 W/m2 SCT
09:07 5.0 °C 0.2 °C 1023.9 hPa Calm     71 % 0.0 mm 107.0 W/m2 FEW
09:12 5.6 °C 0.7 °C 1023.9 hPa Calm     71 % 0.0 mm 116.0 W/m2 CLR
09:17 5.6 °C 0.3 °C 1023.9 hPa Calm     69 % 0.0 mm 144.0 W/m2 CLR
09:22 5.6 °C -0.1 °C 1023.9 hPa Calm     67 % 0.0 mm 123.0 W/m2 CLR
09:27 6.1 °C 0.2 °C 1023.9 hPa Calm     66 % 0.0 mm 181.0 W/m2 CLR
09:32 6.1 °C 0.0 °C 1024.3 hPa Calm     65 % 0.0 mm 199.0 W/m2 CLR
09:37 6.7 °C 0.6 °C 1024.3 hPa Calm     65 % 0.0 mm 220.0 W/m2 CLR
09:42 7.2 °C 0.8 °C 1024.3 hPa Calm     64 % 0.0 mm 236.0 W/m2 CLR
09:47 7.8 °C 0.9 °C 1024.3 hPa Calm     62 % 0.0 mm 251.0 W/m2 CLR
09:57 8.9 °C 1.3 °C 1024.3 hPa Calm     59 % 0.0 mm 285.0 W/m2 CLR
10:07 9.4 °C 0.8 °C 1024.3 hPa Calm     55 % 0.0 mm 315.0 W/m2 CLR
10:12 10.0 °C 1.4 °C 1024.3 hPa Calm     55 % 0.0 mm 327.0 W/m2 CLR
10:17 10.6 °C 1.6 °C 1024.3 hPa Calm     54 % 0.0 mm 338.0 W/m2 CLR
10:22 11.1 °C 1.6 °C 1024.3 hPa Calm     52 % 0.0 mm 357.0 W/m2 CLR
10:27 11.7 °C 1.8 °C 1024.3 hPa Calm     51 % 0.0 mm 367.0 W/m2 CLR
10:32 12.2 °C 2.1 °C 1024.3 hPa Calm     50 % 0.0 mm 385.0 W/m2 CLR
10:37 12.8 °C 2.9 °C 1024.3 hPa Calm     51 % 0.0 mm 397.0 W/m2 CLR
10:42 13.3 °C 3.1 °C 1024.3 hPa Calm     50 % 0.0 mm 411.0 W/m2 CLR
10:47 13.9 °C 3.6 °C 1024.3 hPa Calm     50 % 0.0 mm 425.0 W/m2 CLR
10:52 14.4 °C 4.2 °C 1024.3 hPa Calm     50 % 0.0 mm 438.0 W/m2 CLR
10:57 15.0 °C 4.1 °C 1024.3 hPa Calm     48 % 0.0 mm 450.0 W/m2 CLR
11:02 15.6 °C 4.3 °C 1024.3 hPa Calm     47 % 0.0 mm 462.0 W/m2 CLR
11:07 16.1 °C 4.5 °C 1024.3 hPa Calm     46 % 0.0 mm 476.0 W/m2 CLR
11:12 16.7 °C 5.0 °C 1024.3 hPa Calm     46 % 0.0 mm 489.0 W/m2 CLR
11:17 17.2 °C 4.8 °C 1023.9 hPa Calm     44 % 0.0 mm 499.0 W/m2 CLR
11:22 17.8 °C 5.3 °C 1024.3 hPa Calm     44 % 0.0 mm 510.0 W/m2 CLR
11:27 17.8 °C 5.3 °C 1024.3 hPa Calm     44 % 0.0 mm 524.0 W/m2 CLR
11:32 18.3 °C 5.8 °C 1023.9 hPa Calm     44 % 0.0 mm 533.0 W/m2 CLR
11:37 18.3 °C 5.5 °C 1023.9 hPa Calm     43 % 0.0 mm 541.0 W/m2 CLR
11:42 18.9 °C 5.7 °C 1023.9 hPa Calm     42 % 0.0 mm 554.0 W/m2 CLR
11:47 19.4 °C 6.2 °C 1023.9 hPa Calm     42 % 0.0 mm 564.0 W/m2 CLR
11:52 19.4 °C 5.5 °C 1023.9 hPa Calm     40 % 0.0 mm 573.0 W/m2 CLR
11:57 20.0 °C 6.0 °C 1023.9 hPa Calm     40 % 0.0 mm 582.0 W/m2 CLR
12:02 20.0 °C 6.0 °C 1023.9 hPa Calm   0.2 km/h 40 % 0.0 mm 589.0 W/m2 CLR
12:07 20.6 °C 5.7 °C 1023.9 hPa SW 5.6 km/h 5.6 km/h 38 % 0.0 mm 598.0 W/m2 CLR
12:12 21.1 °C 5.8 °C 1023.9 hPa WSW 7.4 km/h 7.4 km/h 37 % 0.0 mm 605.0 W/m2 CLR
12:17 21.1 °C 5.4 °C 1023.9 hPa WNW 5.6 km/h 5.6 km/h 36 % 0.0 mm 612.0 W/m2 CLR
12:22 21.1 °C 5.4 °C 1023.9 hPa SW 13.0 km/h 13.0 km/h 36 % 0.0 mm 619.0 W/m2 CLR
12:27 21.7 °C 6.3 °C 1023.6 hPa Calm     37 % 0.0 mm 624.0 W/m2 CLR
12:32 22.2 °C 6.4 °C 1023.9 hPa WSW 14.8 km/h 14.8 km/h 36 % 0.0 mm 633.0 W/m2 CLR
12:37 22.2 °C 6.0 °C 1023.6 hPa SW 11.1 km/h 11.1 km/h 35 % 0.0 mm 638.0 W/m2 CLR
12:42 22.8 °C 6.5 °C 1023.9 hPa WSW 8.0 km/h 8.0 km/h 35 % 0.0 mm 645.0 W/m2 CLR
12:47 22.8 °C 6.5 °C 1023.6 hPa Calm   0.6 km/h 35 % 0.0 mm 649.0 W/m2 CLR
12:52 22.8 °C 6.5 °C 1023.6 hPa Calm     35 % 0.0 mm 654.0 W/m2 CLR
12:57 22.8 °C 6.5 °C 1023.6 hPa South 9.3 km/h 9.3 km/h 35 % 0.0 mm 659.0 W/m2 CLR
13:02 22.8 °C 6.1 °C 1023.6 hPa SE 7.4 km/h 7.4 km/h 34 % 0.0 mm 664.0 W/m2 CLR
13:07 23.3 °C 6.6 °C 1023.6 hPa SW 13.0 km/h 13.0 km/h 34 % 0.0 mm 668.0 W/m2 CLR
13:12 23.9 °C 7.5 °C 1023.6 hPa Calm   0.5 km/h 35 % 0.0 mm 668.0 W/m2 CLR
13:17 23.9 °C 7.1 °C 1023.6 hPa Calm     34 % 0.0 mm 675.0 W/m2 CLR
13:22 23.9 °C 6.6 °C 1023.6 hPa WSW 13.0 km/h 13.0 km/h 33 % 0.0 mm 675.0 W/m2 CLR
13:27 23.3 °C 6.2 °C 1023.2 hPa NW 11.1 km/h 11.1 km/h 33 % 0.0 mm 677.0 W/m2 CLR
13:32 23.3 °C 5.7 °C 1023.2 hPa West 11.1 km/h 11.1 km/h 32 % 0.0 mm 677.0 W/m2 CLR
13:37 23.3 °C 5.2 °C 1023.2 hPa WNW 13.0 km/h 13.0 km/h 31 % 0.0 mm 679.0 W/m2 CLR
13:42 23.3 °C 5.2 °C 1023.2 hPa Calm     31 % 0.0 mm 680.0 W/m2 CLR
13:47 23.3 °C 5.2 °C 1023.2 hPa West 5.6 km/h 5.6 km/h 31 % 0.0 mm 684.0 W/m2 CLR
13:52 23.9 °C 5.7 °C 1023.2 hPa West 9.7 km/h 9.7 km/h 31 % 0.0 mm 682.0 W/m2 CLR
13:57 23.9 °C 5.7 °C 1023.2 hPa West 7.4 km/h 7.4 km/h 31 % 0.0 mm 680.0 W/m2 CLR
14:02 23.9 °C 5.3 °C 1022.9 hPa WNW 13.0 km/h 13.0 km/h 30 % 0.0 mm 680.0 W/m2 CLR
14:07 23.3 °C 4.3 °C 1022.9 hPa West 11.1 km/h 11.1 km/h 29 % 0.0 mm 677.0 W/m2 CLR
14:12 23.9 °C 4.3 °C 1022.9 hPa West 7.4 km/h 7.4 km/h 28 % 0.0 mm 677.0 W/m2 CLR
14:22 23.9 °C 4.8 °C 1022.6 hPa West 7.4 km/h 7.4 km/h 29 % 0.0 mm 671.0 W/m2 CLR
14:27 23.9 °C 5.3 °C 1022.6 hPa WNW 14.8 km/h 14.8 km/h 30 % 0.0 mm 670.0 W/m2 CLR
14:32 23.9 °C 5.3 °C 1022.6 hPa WNW 11.1 km/h 11.1 km/h 30 % 0.0 mm 666.0 W/m2 CLR
14:37 23.9 °C 5.3 °C 1022.6 hPa West 9.7 km/h 9.7 km/h 30 % 0.0 mm 661.0 W/m2 CLR
14:42 24.4 °C 5.2 °C 1022.2 hPa NNE 4.8 km/h 4.8 km/h 29 % 0.0 mm 656.0 W/m2 CLR
14:47 24.4 °C 5.2 °C 1022.2 hPa Calm     29 % 0.0 mm 654.0 W/m2 CLR
14:53 24.4 °C 5.7 °C 1022.2 hPa West 5.6 km/h 5.6 km/h 30 % 0.0 mm 649.0 W/m2 CLR
14:58 24.4 °C 5.2 °C 1022.2 hPa Calm     29 % 0.0 mm 643.0 W/m2 CLR
15:03 25.0 °C 5.7 °C 1022.2 hPa Calm   0.2 km/h 29 % 0.0 mm 636.0 W/m2 CLR
15:08 24.4 °C 5.2 °C 1022.2 hPa NNW 1.9 km/h   29 % 0.0 mm 633.0 W/m2 CLR
15:13 24.4 °C 5.2 °C 1021.9 hPa NNE 5.6 km/h 5.6 km/h 29 % 0.0 mm 626.0 W/m2 CLR
15:18 24.4 °C 5.2 °C 1021.9 hPa North 11.1 km/h 11.1 km/h 29 % 0.0 mm 619.0 W/m2 CLR
15:23 24.4 °C 5.2 °C 1021.9 hPa NNW 5.6 km/h 5.6 km/h 29 % 0.0 mm 610.0 W/m2 CLR
15:28 24.4 °C 5.2 °C 1021.9 hPa North 7.4 km/h 7.4 km/h 29 % 0.0 mm 603.0 W/m2 CLR
15:33 25.0 °C 5.7 °C 1021.9 hPa Calm     29 % 0.0 mm 594.0 W/m2 CLR
15:38 24.4 °C 5.2 °C 1021.9 hPa North 7.4 km/h 7.4 km/h 29 % 0.0 mm 587.0 W/m2 CLR
15:43 25.0 °C 5.7 °C 1021.9 hPa Calm     29 % 0.0 mm 577.0 W/m2 CLR
15:48 25.0 °C 5.7 °C 1021.6 hPa Calm     29 % 0.0 mm 568.0 W/m2 CLR
15:53 25.0 °C 5.7 °C 1021.6 hPa Calm     29 % 0.0 mm 561.0 W/m2 CLR
16:03 25.0 °C 4.7 °C 1021.6 hPa Calm     27 % 0.0 mm 536.0 W/m2 CLR
16:08 25.0 °C 5.2 °C 1021.6 hPa North 6.4 km/h 6.4 km/h 28 % 0.0 mm 527.0 W/m2 CLR
16:13 25.0 °C 4.7 °C 1021.6 hPa North 9.3 km/h 9.3 km/h 27 % 0.0 mm 515.0 W/m2 CLR
16:18 25.0 °C 4.7 °C 1021.6 hPa North 9.3 km/h 9.3 km/h 27 % 0.0 mm 504.0 W/m2 CLR
16:23 25.6 °C 5.7 °C 1021.6 hPa NNW 9.3 km/h 9.3 km/h 28 % 0.0 mm 492.0 W/m2 CLR
16:28 25.6 °C 5.7 °C 1021.6 hPa NNW 1.6 km/h   28 % 0.0 mm 478.0 W/m2 CLR
16:29 25.0 °C 5.2 °C 1021.6 hPa NW 8.0 km/h 8.0 km/h 28 % 0.0 mm 476.0 W/m2 CLR
16:34 25.6 °C 5.2 °C 1021.6 hPa North 5.6 km/h 5.6 km/h 27 % 0.0 mm 466.0 W/m2 CLR
16:44 25.6 °C 5.2 °C 1021.6 hPa NNE 9.3 km/h 9.3 km/h 27 % 0.0 mm 439.0 W/m2 CLR
16:49 25.0 °C 4.7 °C 1021.2 hPa North 7.4 km/h 7.4 km/h 27 % 0.0 mm 425.0 W/m2 CLR
16:54 25.6 °C 5.2 °C 1021.2 hPa North 3.7 km/h 3.7 km/h 27 % 0.0 mm 413.0 W/m2 CLR
16:59 25.6 °C 5.2 °C 1021.2 hPa North 7.4 km/h 7.4 km/h 27 % 0.0 mm 397.0 W/m2 CLR
17:04 25.6 °C 4.6 °C 1021.2 hPa NW 3.7 km/h   26 % 0.0 mm 387.0 W/m2 CLR
17:09 25.6 °C 4.6 °C 1021.2 hPa Calm   0.2 km/h 26 % 0.0 mm 369.0 W/m2 CLR
17:14 25.6 °C 4.6 °C 1021.2 hPa NNW 5.6 km/h 5.6 km/h 26 % 0.0 mm 359.0 W/m2 CLR
17:19 25.6 °C 4.1 °C 1021.2 hPa Calm     25 % 0.0 mm 345.0 W/m2 CLR
17:29 25.0 °C 3.6 °C 1021.2 hPa NNW 1.9 km/h 1.9 km/h 25 % 0.0 mm 313.0 W/m2 CLR
17:34 25.0 °C 3.6 °C 1021.2 hPa NNW 9.3 km/h 9.3 km/h 25 % 0.0 mm 302.0 W/m2 CLR
17:39 25.0 °C 3.0 °C 1021.2 hPa NNW 5.6 km/h 5.6 km/h 24 % 0.0 mm 285.0 W/m2 CLR
17:44 25.0 °C 3.6 °C 1021.2 hPa NW 5.6 km/h 5.6 km/h 25 % 0.0 mm 265.0 W/m2 CLR
17:45 25.0 °C 3.6 °C 1021.2 hPa NNW 9.7 km/h 9.7 km/h 25 % 0.0 mm 262.0 W/m2 CLR
17:50 24.4 °C 3.1 °C 1021.2 hPa NW 5.6 km/h 5.6 km/h 25 % 0.0 mm 246.0 W/m2 CLR
17:55 24.4 °C 2.6 °C 1021.2 hPa North 5.6 km/h 5.6 km/h 24 % 0.0 mm 229.0 W/m2 CLR
17:56 24.4 °C 2.6 °C 1021.2 hPa North 5.6 km/h 5.6 km/h 24 % 0.0 mm 229.0 W/m2 CLR
18:01 24.4 °C 3.1 °C 1021.2 hPa NNW 7.4 km/h 7.4 km/h 25 % 0.0 mm 207.0 W/m2 CLR
18:06 23.9 °C 2.7 °C 1021.2 hPa NW 8.0 km/h 8.0 km/h 25 % 0.0 mm 190.0 W/m2 CLR
18:11 23.9 °C 2.7 °C 1021.2 hPa Calm   0.3 km/h 25 % 0.0 mm 172.0 W/m2 CLR
18:16 23.3 °C 2.2 °C 1021.2 hPa Calm     25 % 0.0 mm 149.0 W/m2 CLR
18:21 22.2 °C 1.2 °C 1021.2 hPa NW 4.8 km/h 4.8 km/h 25 % 0.0 mm 134.0 W/m2 CLR
18:26 21.7 °C 0.2 °C 1021.2 hPa NW 7.4 km/h 7.4 km/h 24 % 0.0 mm 118.0 W/m2 CLR
18:31 21.7 °C 0.2 °C 1021.2 hPa Calm     24 % 0.0 mm 100.0 W/m2 CLR
18:36 21.1 °C -0.3 °C 1021.2 hPa Calm     24 % 0.0 mm 76.0 W/m2 FEW
18:41 20.6 °C -0.2 °C 1021.2 hPa Calm     25 % 0.0 mm 65.0 W/m2 FEW
18:46 19.4 °C -1.1 °C 1021.2 hPa Calm     25 % 0.0 mm 51.0 W/m2 SCT
18:51 18.9 °C -1.1 °C 1021.6 hPa Calm     26 % 0.0 mm 40.0 W/m2 BKN
18:56 18.9 °C -1.1 °C 1021.6 hPa Calm     26 % 0.0 mm 28.0 W/m2 BKN
19:01 18.3 °C -1.6 °C 1021.6 hPa Calm     26 % 0.0 mm 19.0 W/m2 BKN
19:06 17.8 °C -2.0 °C 1021.6 hPa Calm     26 % 0.0 mm 14.0 W/m2 BKN
19:11 17.2 °C -1.9 °C 1021.6 hPa Calm     27 % 0.0 mm 12.0 W/m2 BKN
19:16 16.7 °C -2.4 °C 1021.6 hPa Calm     27 % 0.0 mm 11.0 W/m2 BKN
19:21 16.1 °C -2.9 °C 1021.6 hPa Calm     27 % 0.0 mm 7.0 W/m2 BKN
19:26 16.1 °C -2.4 °C 1021.6 hPa Calm     28 % 0.0 mm 5.0 W/m2 OVC
19:31 15.6 °C -2.9 °C 1021.6 hPa Calm     28 % 0.0 mm 0.0 W/m2 OVC
19:36 15.6 °C -2.4 °C 1021.6 hPa Calm     29 % 0.0 mm 0.0 W/m2 OVC
19:41 15.6 °C -2.0 °C 1021.6 hPa Calm     30 % 0.0 mm 0.0 W/m2 CLR
19:46 15.0 °C -2.0 °C 1021.9 hPa Calm     31 % 0.0 mm 0.0 W/m2 CLR
19:51 15.6 °C -1.1 °C 1021.9 hPa Calm     32 % 0.0 mm 0.0 W/m2 CLR
19:56 15.0 °C -1.2 °C 1021.9 hPa Calm     33 % 0.0 mm 0.0 W/m2 CLR
20:01 15.0 °C -0.3 °C 1021.9 hPa Calm     35 % 0.0 mm 0.0 W/m2 CLR
20:06 14.4 °C -0.4 °C 1021.9 hPa Calm     36 % 0.0 mm 0.0 W/m2 CLR
20:11 13.9 °C -0.9 °C 1022.2 hPa Calm     36 % 0.0 mm 0.0 W/m2 CLR
20:16 13.9 °C -0.2 °C 1022.2 hPa Calm     38 % 0.0 mm 0.0 W/m2 CLR
20:21 13.9 °C -0.2 °C 1022.2 hPa Calm     38 % 0.0 mm 0.0 W/m2 CLR
20:31 13.9 °C 0.5 °C 1022.2 hPa Calm     40 % 0.0 mm 0.0 W/m2 CLR
20:36 13.9 °C 0.5 °C 1022.2 hPa Calm     40 % 0.0 mm 0.0 W/m2 CLR
20:41 13.9 °C 0.8 °C 1022.6 hPa Calm     41 % 0.0 mm 0.0 W/m2 CLR
20:46 13.3 °C 0.3 °C 1022.6 hPa Calm     41 % 0.0 mm 0.0 W/m2 CLR
20:51 13.3 °C 0.7 °C 1022.6 hPa Calm     42 % 0.0 mm 0.0 W/m2 CLR
20:56 12.8 °C 0.2 °C 1022.6 hPa Calm     42 % 0.0 mm 0.0 W/m2 CLR
21:01 12.8 °C 0.5 °C 1022.6 hPa Calm     43 % 0.0 mm 0.0 W/m2 CLR
21:06 12.2 °C 0.0 °C 1022.6 hPa Calm     43 % 0.0 mm 0.0 W/m2 CLR
21:11 12.2 °C 0.0 °C 1022.9 hPa Calm     43 % 0.0 mm 0.0 W/m2 CLR
21:17 11.7 °C -0.2 °C 1022.9 hPa Calm     44 % 0.0 mm 0.0 W/m2 CLR
21:22 12.2 °C 0.6 °C 1022.9 hPa Calm     45 % 0.0 mm 0.0 W/m2 CLR
21:27 12.2 °C 0.6 °C 1022.9 hPa Calm     45 % 0.0 mm 0.0 W/m2 CLR
21:32 11.7 °C 0.1 °C 1022.9 hPa Calm     45 % 0.0 mm 0.0 W/m2 CLR
21:37 11.7 °C 0.4 °C 1022.9 hPa Calm     46 % 0.0 mm 0.0 W/m2 CLR
21:42 11.7 °C 1.0 °C 1022.9 hPa Calm     48 % 0.0 mm 0.0 W/m2 CLR
21:47 11.7 °C 0.4 °C 1022.9 hPa Calm     46 % 0.0 mm 0.0 W/m2 CLR
21:52 11.7 °C 0.4 °C 1022.9 hPa Calm     46 % 0.0 mm 0.0 W/m2 CLR
21:57 11.7 °C 0.4 °C 1022.9 hPa Calm     46 % 0.0 mm 0.0 W/m2 CLR
22:02 11.1 °C -0.1 °C 1023.2 hPa Calm     46 % 0.0 mm 0.0 W/m2 CLR
22:07 11.1 °C -0.1 °C 1023.2 hPa Calm     46 % 0.0 mm 0.0 W/m2 CLR
22:12 10.6 °C -0.6 °C 1023.2 hPa Calm     46 % 0.0 mm 0.0 W/m2 CLR
22:17 10.6 °C -0.3 °C 1023.2 hPa Calm     47 % 0.0 mm 0.0 W/m2 CLR
22:22 10.6 °C 0.0 °C 1023.2 hPa Calm     48 % 0.0 mm 0.0 W/m2 CLR
22:27 10.0 °C -0.2 °C 1023.2 hPa Calm     49 % 0.0 mm 0.0 W/m2 CLR
22:32 10.0 °C 0.1 °C 1023.2 hPa Calm     50 % 0.0 mm 0.0 W/m2 CLR
22:37 10.0 °C 0.3 °C 1023.2 hPa Calm     51 % 0.0 mm 0.0 W/m2 CLR
22:42 10.0 °C 0.6 °C 1023.6 hPa Calm     52 % 0.0 mm 0.0 W/m2 CLR
22:52 9.4 °C 0.1 °C 1023.6 hPa Calm     52 % 0.0 mm 0.0 W/m2 CLR
22:57 9.4 °C 0.3 °C 1023.6 hPa Calm     53 % 0.0 mm 0.0 W/m2 CLR
23:02 8.9 °C 0.1 °C 1023.6 hPa Calm     54 % 0.0 mm 0.0 W/m2 CLR
23:07 8.9 °C 0.1 °C 1023.6 hPa Calm     54 % 0.0 mm 0.0 W/m2 CLR
23:12 8.9 °C 0.3 °C 1023.6 hPa Calm     55 % 0.0 mm 0.0 W/m2 CLR
23:17 8.9 °C 0.3 °C 1023.6 hPa Calm     55 % 0.0 mm 0.0 W/m2 CLR
23:22 8.9 °C 0.3 °C 1023.6 hPa Calm     55 % 0.0 mm 0.0 W/m2 CLR
23:27 9.4 °C 0.8 °C 1023.6 hPa Calm     55 % 0.0 mm 0.0 W/m2 CLR
23:32 9.4 °C 0.8 °C 1023.6 hPa Calm     55 % 0.0 mm 0.0 W/m2 CLR
23:37 9.4 °C 0.8 °C 1023.6 hPa Calm     55 % 0.0 mm 0.0 W/m2 CLR
23:42 9.4 °C 1.1 °C 1023.9 hPa Calm     56 % 0.0 mm 0.0 W/m2 CLR
23:47 9.4 °C 1.1 °C 1023.9 hPa Calm     56 % 0.0 mm 0.0 W/m2 CLR
23:57 8.9 °C 1.1 °C 1023.9 hPa Calm     58 % 0.0 mm 0.0 W/m2 CLR
Lo Temps de Massalio
Compliments of Weather Underground - 1.25 mb